EW0105 Weather Reports


Display with metric or nautical units.
time (UTC)temp
F
wind
direction
speed
MPH
gust
MPH
rain 1hr
in
rain 24hr
in
rain mn
in
humidity
%
barometer
mb
20180424024957 54 61 3.0 6.0 0.00 0.45 0.45 96 1015.3
20180424023457 54 71 4.0 6.0 0.00 0.45 0.45 96 1015.2
20180424021957 54 61 3.0 8.0 0.01 0.45 0.45 96 1015.2
20180424020458 54 63 4.0 7.0 0.04 0.45 0.45 96 1015.2
20180424014955 54 71 4.0 8.0 0.05 0.45 0.45 96 1015.2
20180424013455 54 60 5.0 10.0 0.06 0.45 0.45 95 1015.2
20180424011954 55 63 3.0 8.0 0.05 0.44 0.44 95 1015.2
20180424010453 55 68 5.0 9.0 0.02 0.41 0.41 95 1015.1
20180424004954 55 63 4.0 7.0 0.01 0.40 0.40 95 1015.1
20180424003452 55 65 5.0 7.0 0.00 0.39 0.39 95 1015.0
20180424001952 55 76 4.0 10.0 0.00 0.39 0.39 95 1015.0
20180424000452 55 76 5.0 7.0 0.00 0.39 0.39 95 1015.0
20180423234950 55 66 3.0 8.0 0.00 0.39 0.39 94 1015.0
20180423233450 55 44 6.0 10.0 0.00 0.39 0.39 94 1014.8
20180423231950 55 63 5.0 9.0 0.00 0.39 0.39 94 1014.9
20180423230449 55 90 4.0 8.0 0.00 0.39 0.39 94 1014.9
20180423224951 55 46 5.0 8.0 0.00 0.39 0.39 93 1014.9
20180423223450 55 82 5.0 12.0 0.00 0.39 0.39 93 1014.9
20180423221951 56 86 5.0 10.0 0.00 0.39 0.39 93 1014.9
20180423220447 55 70 4.0 10.0 0.00 0.39 0.39 93 1014.9
20180423214947 55 58 4.0 7.0 0.00 0.39 0.39 93 1014.9
20180423213446 55 80 4.0 11.0 0.00 0.39 0.39 93 1014.9
20180423211945 55 59 5.0 10.0 0.00 0.39 0.39 93 1015.0
20180423210445 55 77 7.0 11.0 0.00 0.39 0.39 93 1015.0
20180423204943 55 82 5.0 9.0 0.01 0.39 0.39 93 1015.1
20180423203444 55 93 4.0 10.0 0.01 0.39 0.39 94 1015.2
20180423201940 55 90 5.0 10.0 0.01 0.39 0.39 94 1015.3
20180423200438 55 84 6.0 11.0 0.01 0.39 0.39 94 1015.4
20180423194936 55 93 5.0 13.0 0.00 0.38 0.38 94 1015.6
20180423193434 55 92 4.0 10.0 0.00 0.38 0.38 94 1015.6
20180423191934 54 82 6.0 10.0 0.01 0.38 0.38 94 1015.8
20180423190431 54 77 3.0 11.0 0.01 0.38 0.38 94 1015.9
20180423184931 54 91 3.0 10.0 0.01 0.38 0.38 95 1016.0
20180423183431 54 74 3.0 14.0 0.01 0.38 0.38 95 1016.0
20180423181928 53 70 7.0 12.0 0.01 0.37 0.37 95 1016.0
20180423180429 53 78 4.0 11.0 0.01 0.37 0.37 95 1016.0
20180423174925 53 65 7.0 14.0 0.01 0.37 0.37 95 1016.1
20180423173426 53 85 7.0 12.0 0.01 0.37 0.37 95 1016.2
20180423171927 53 63 5.0 10.0 0.00 0.36 0.36 95 1016.4
20180423170422 52 123 7.0 12.0 0.01 0.36 0.36 94 1016.6
20180423164922 52 69 5.0 11.0 0.02 0.36 0.36 95 1016.7
20180423163425 52 79 3.0 10.0 0.02 0.36 0.36 95 1016.7
20180423161922 52 86 5.0 10.0 0.06 0.36 0.36 94 1016.8
20180423160421 51 82 4.0 11.0 0.07 0.35 0.35 94 1016.9
20180423154920 51 73 6.0 10.0 0.11 0.34 0.34 94 1016.9
20180423153417 50 86 7.0 11.0 0.13 0.34 0.34 94 1016.8
20180423151915 50 55 6.0 12.0 0.12 0.30 0.30 93 1016.8
20180423150413 49 88 5.0 12.0 0.12 0.28 0.28 92 1016.9
20180423144914 49 97 7.0 11.0 0.10 0.23 0.23 92 1017.0
20180423143415 48 90 6.0 12.0 0.12 0.21 0.21 90 1017.0
20180423141913 48 78 5.0 8.0 0.10 0.18 0.18 90 1016.9
20180423140412 48 51 6.0 10.0 0.10 0.16 0.16 88 1016.7
20180423134909 48 80 5.0 12.0 0.08 0.13 0.13 87 1016.9
20180423133405 48 81 7.0 11.0 0.04 0.09 0.09 85 1016.9
20180423131901 48 61 6.0 14.0 0.04 0.08 0.08 84 1017.0
20180423130401 48 86 6.0 10.0 0.02 0.06 0.06 81 1017.1
20180423124900 48 61 6.0 13.0 0.02 0.05 0.05 80 1017.1
20180423123358 48 62 6.0 10.0 0.02 0.05 0.05 79 1017.1
20180423121858 48 60 4.0 11.0 0.02 0.04 0.04 77 1017.2
20180423120354 48 58 4.0 7.0 0.03 0.04 0.04 77 1017.2
20180423114855 48 66 5.0 9.0 0.03 0.03 0.03 76 1017.1
20180423113354 48 69 5.0 9.0 0.02 0.02 0.02 75 1017.0
20180423111851 48 77 5.0 9.0 0.02 0.02 0.02 74 1016.8
20180423110350 49 63 4.0 9.0 0.01 0.01 0.01 69 1016.9
20180423104842 50 71 3.0 8.0 0.00 0.00 0.00 65 1016.8
20180423103342 50 67 6.0 9.0 0.00 0.00 0.00 63 1016.3
20180423101838 51 54 4.0 8.0 0.00 0.00 0.00 62 1016.4
20180423100334 52 59 3.0 8.0 0.00 0.00 0.00 59 1016.4
20180423094832 52 65 3.0 9.0 0.00 0.00 0.00 56 1016.5
20180423093330 53 54 5.0 9.0 0.00 0.00 0.00 55 1016.5
20180423091827 53 64 6.0 10.0 0.00 0.00 0.00 54 1016.5
20180423090326 53 66 6.0 13.0 0.00 0.00 0.00 54 1016.6
20180423084823 53 69 6.0 11.0 0.00 0.00 0.00 54 1016.6
20180423083321 54 57 7.0 11.0 0.00 0.00 0.00 53 1016.6
20180423081821 54 57 8.0 12.0 0.00 0.00 0.00 52 1016.4
20180423080319 54 58 9.0 12.0 0.00 0.00 0.00 52 1016.4
20180423074817 54 50 10.0 14.0 0.00 0.00 0.00 52 1016.3
20180423073316 55 49 8.0 13.0 0.00 0.00 0.00 52 1016.5
20180423071814 55 49 7.0 13.0 0.00 0.00 0.00 52 1016.6
20180423070314 55 71 7.0 13.0 0.00 0.00 0.00 51 1016.7
20180423064812 55 84 8.0 14.0 0.00 0.00 0.00 49 1016.9
20180423063304 56 64 8.0 14.0 0.00 0.00 0.00 48 1017.0
20180423061801 56 55 7.0 13.0 0.00 0.00 0.00 47 1017.3
20180423060259 57 77 8.0 14.0 0.00 0.00 0.00 46 1017.5
20180423054755 57 44 6.0 10.0 0.00 0.00 0.00 46 1017.6
20180423053256 58 64 6.0 12.0 0.00 0.00 0.00 46 1017.7
20180423051753 58 65 5.0 11.0 0.00 0.00 0.00 46 1017.8
20180423050255 58 57 6.0 13.0 0.00 0.00 0.00 46 1017.8
20180423044749 58 63 5.0 10.0 0.00 0.00 0.00 46 1017.9
20180423043248 58 65 5.0 10.0 0.00 0.00 0.00 44 1017.9
20180423041751 58 69 6.0 10.0 0.00 0.00 0.00 43 1018.1
20180423040250 58 62 6.0 11.0 0.00 0.00 0.00 41 1018.2
20180423034744 59 56 5.0 9.0 0.00 0.00 0.00 40 1018.3
20180423033247 60 55 6.0 9.0 0.00 0.00 0.00 37 1018.6
20180423031742 61 71 5.0 11.0 0.00 0.00 0.00 36 1018.8
20180423030241 61 67 5.0 11.0 0.00 0.00 0.00 35 1018.7